Time;durP1;ratioP1;P1;durP2;ratioP2;P2;SDS_P1;SDS_P2;PMS_P1;PMS_P2;Temp;Humidity;BMP_temperature;BMP_pressure;BME280_temperature;BME280_humidity;BME280_pressure;Samples;Min_cycle;Max_cycle;Signal;HPM_P1;HPM_P2
2021/08/21 00:00:53;;;;;;;6.83;5.87;;;;;;;15.82;71.60;100313.18;153966;1101;103186;-74
2021/08/21 00:03:55;;;;;;;7.25;5.65;;;;;;;15.80;71.61;100309.84;153941;1101;103153;-74
2021/08/21 00:06:58;;;;;;;7.10;5.50;;;;;;;15.79;71.81;100313.57;154027;1094;103190;-73
2021/08/21 00:10:03;;;;;;;8.75;6.30;;;;;;;15.78;71.92;100315.44;153959;1101;103694;-75
2021/08/21 00:13:06;;;;;;;8.97;6.47;;;;;;;15.78;71.71;100318.13;153979;1101;103215;-74
2021/08/21 00:16:09;;;;;;;10.70;6.80;;;;;;;15.76;71.69;100312.09;153931;1101;103190;-76
2021/08/21 00:19:12;;;;;;;7.30;6.20;;;;;;;15.70;71.84;100305.57;154036;1101;103125;-76
2021/08/21 00:22:14;;;;;;;7.47;5.67;;;;;;;15.68;72.10;100312.13;154028;1093;103150;-76
2021/08/21 00:25:17;;;;;;;8.25;5.50;;;;;;;15.71;71.67;100315.30;153958;1093;103218;-75
2021/08/21 00:28:20;;;;;;;8.70;6.20;;;;;;;15.70;71.85;100319.02;153964;1093;103155;-75
2021/08/21 00:31:24;;;;;;;11.00;6.43;;;;;;;15.68;72.17;100310.30;153972;1101;103113;-73
2021/08/21 00:34:27;;;;;;;6.67;5.73;;;;;;;15.66;72.07;100309.63;153961;1093;103195;-74
2021/08/21 00:37:30;;;;;;;8.13;6.25;;;;;;;15.63;72.28;100309.19;153989;1093;103192;-74
2021/08/21 00:40:33;;;;;;;8.57;6.13;;;;;;;15.58;72.21;100312.41;153990;1101;103576;-74
2021/08/21 00:43:37;;;;;;;6.93;5.43;;;;;;;15.60;72.52;100315.75;154015;1101;103213;-75
2021/08/21 00:47:05;;;;;;;8.70;6.15;;;;;;;15.63;72.14;100315.39;153984;1093;103223;-71
2021/08/21 00:50:09;;;;;;;7.20;5.90;;;;;;;15.65;72.18;100318.73;153985;1093;103104;-76
2021/08/21 00:53:12;;;;;;;7.65;5.63;;;;;;;15.65;72.33;100313.34;154002;1101;103214;-75
2021/08/21 00:56:16;;;;;;;6.27;5.00;;;;;;;15.66;72.21;100320.38;154094;1101;103180;-79
2021/08/21 00:59:20;;;;;;;6.90;4.50;;;;;;;15.66;72.16;100314.17;153994;1093;103214;-77
2021/08/21 01:02:24;;;;;;;5.25;3.95;;;;;;;15.67;72.12;100322.06;153940;1101;102936;-77
2021/08/21 01:05:28;;;;;;;6.78;4.30;;;;;;;15.68;72.03;100318.38;153984;1101;102964;-77
2021/08/21 01:08:32;;;;;;;6.75;4.45;;;;;;;15.73;72.39;100319.67;153949;1101;102978;-77
2021/08/21 01:11:40;;;;;;;5.77;4.37;;;;;;;15.79;72.15;100313.57;153961;1101;103065;-76
2021/08/21 01:14:45;;;;;;;4.98;4.43;;;;;;;15.82;72.15;100318.56;153990;1101;103054;-75
2021/08/21 01:17:51;;;;;;;6.53;4.80;;;;;;;15.84;72.38;100322.76;154068;1101;102991;-75
2021/08/21 01:20:55;;;;;;;5.33;3.90;;;;;;;15.89;72.11;100324.88;154158;1093;102998;-74
2021/08/21 01:23:59;;;;;;;6.90;4.20;;;;;;;15.91;72.25;100309.38;154023;1093;103022;-73
2021/08/21 01:27:16;;;;;;;6.18;4.50;;;;;;;15.97;72.29;100310.48;153966;1101;103094;-74
2021/08/21 01:30:35;;;;;;;7.25;4.40;;;;;;;16.04;72.22;100304.17;154008;1101;102926;-74
2021/08/21 01:33:48;;;;;;;6.03;4.90;;;;;;;16.07;72.16;100309.19;154003;1100;102959;-74
2021/08/21 01:36:52;;;;;;;6.63;5.33;;;;;;;16.08;72.25;100305.46;153947;1094;102968;-74
2021/08/21 01:40:15;;;;;;;6.97;5.40;;;;;;;16.09;72.15;100304.45;153997;1093;103001;-74
2021/08/21 01:43:22;;;;;;;8.10;5.40;;;;;;;16.11;72.31;100306.96;154038;1101;104572;-74
2021/08/21 01:46:26;;;;;;;9.27;5.97;;;;;;;16.11;72.35;100312.34;154088;1094;102955;-75
2021/08/21 01:49:40;;;;;;;7.87;5.97;;;;;;;16.11;72.62;100306.96;153926;1094;103002;-73
2021/08/21 01:52:44;;;;;;;7.67;5.80;;;;;;;16.13;72.59;100304.06;154031;1093;102911;-73
2021/08/21 01:56:01;;;;;;;9.40;6.13;;;;;;;16.13;72.78;100309.44;153978;1093;103003;-73
2021/08/21 01:59:36;;;;;;;7.48;5.53;;;;;;;16.13;72.76;100306.75;153979;1093;103458;-73
2021/08/21 02:02:50;;;;;;;7.45;5.78;;;;;;;16.14;72.44;100300.36;153980;1101;103025;-75
2021/08/21 02:06:04;;;;;;;8.50;6.17;;;;;;;16.17;72.58;100313.45;153997;1093;102912;-76
2021/08/21 02:09:09;;;;;;;7.87;5.83;;;;;;;16.22;72.92;100302.94;153984;1093;102916;-79
2021/08/21 02:12:16;;;;;;;7.85;6.20;;;;;;;16.27;72.95;100300.52;154087;1093;102934;-77
2021/08/21 02:15:22;;;;;;;7.73;5.85;;;;;;;16.30;72.88;100302.81;154052;1101;103081;-76
2021/08/21 02:18:31;;;;;;;8.13;6.47;;;;;;;16.33;73.06;100309.70;154033;1093;102934;-78
2021/08/21 02:21:42;;;;;;;8.83;5.97;;;;;;;16.40;73.12;100307.92;154029;1093;102992;-77
2021/08/21 02:24:52;;;;;;;8.30;6.25;;;;;;;16.42;72.88;100306.70;154038;1093;102923;-76
2021/08/21 02:27:57;;;;;;;6.80;5.60;;;;;;;16.45;73.04;100314.38;153979;1093;102991;-73
2021/08/21 02:31:00;;;;;;;7.27;5.03;;;;;;;16.46;73.06;100310.68;153962;1101;103115;-74
2021/08/21 02:34:05;;;;;;;7.83;5.10;;;;;;;16.45;72.62;100309.00;153972;1101;102932;-74
2021/08/21 02:37:09;;;;;;;6.70;4.77;;;;;;;16.44;72.53;100314.59;153977;1093;102940;-75
2021/08/21 02:40:15;;;;;;;7.03;5.00;;;;;;;16.38;72.68;100310.80;154170;1093;102952;-76
2021/08/21 02:43:20;;;;;;;7.67;4.60;;;;;;;16.33;72.43;100312.39;154067;1093;102994;-75
2021/08/21 02:46:24;;;;;;;6.13;5.00;;;;;;;16.25;72.49;100319.55;154008;1101;103025;-77
2021/08/21 02:49:28;;;;;;;8.23;4.68;;;;;;;16.18;72.18;100312.41;153957;1101;102997;-76
2021/08/21 02:52:31;;;;;;;6.63;5.17;;;;;;;16.12;72.12;100322.08;153969;1101;102955;-76
2021/08/21 02:55:35;;;;;;;8.37;6.17;;;;;;;16.06;72.60;100326.34;153961;1101;103006;-75
2021/08/21 02:58:39;;;;;;;9.60;6.48;;;;;;;16.01;72.07;100323.41;153991;1093;102921;-76
2021/08/21 03:01:43;;;;;;;15.47;12.27;;;;;;;16.01;72.24;100323.41;153995;1101;103064;-75
2021/08/21 03:04:47;;;;;;;18.53;14.10;;;;;;;16.03;72.27;100321.36;153957;1101;103381;-74
2021/08/21 03:07:55;;;;;;;16.00;11.83;;;;;;;16.02;72.21;100316.98;154036;1093;102932;-75
2021/08/21 03:10:59;;;;;;;14.43;10.75;;;;;;;16.02;71.98;100324.23;154019;1101;103000;-75
2021/08/21 03:14:07;;;;;;;10.70;7.85;;;;;;;16.03;72.12;100326.74;153999;1093;103013;-75
2021/08/21 03:17:11;;;;;;;11.80;5.95;;;;;;;16.00;71.87;100324.41;153950;1101;103540;-74
2021/08/21 03:20:15;;;;;;;6.93;5.68;;;;;;;16.04;72.26;100320.32;154083;1101;102997;-76
2021/08/21 03:23:19;;;;;;;9.13;6.13;;;;;;;16.07;72.01;100313.72;154023;1101;103390;-75
2021/08/21 03:26:23;;;;;;;8.30;6.13;;;;;;;16.08;72.04;100324.30;154014;1093;102992;-73
2021/08/21 03:29:31;;;;;;;9.18;5.50;;;;;;;16.11;72.18;100333.88;154043;1093;102913;-72
2021/08/21 03:32:35;;;;;;;7.65;5.95;;;;;;;16.18;72.00;100333.95;154007;1101;103059;-75
2021/08/21 03:35:39;;;;;;;9.80;6.23;;;;;;;16.22;72.20;100337.93;154016;1101;102912;-75
2021/08/21 03:38:44;;;;;;;7.58;5.68;;;;;;;16.24;72.50;100330.50;153970;1101;103400;-75
2021/08/21 03:41:52;;;;;;;7.00;6.07;;;;;;;16.28;72.31;100334.48;153960;1093;102995;-76
2021/08/21 03:44:57;;;;;;;7.35;5.48;;;;;;;16.33;72.24;100325.86;154041;1101;102935;-76
2021/08/21 03:48:02;;;;;;;7.53;5.47;;;;;;;16.38;72.10;100329.66;153998;1101;103071;-75
2021/08/21 03:51:06;;;;;;;7.98;6.48;;;;;;;16.43;72.29;100335.28;153999;1101;102998;-75
2021/08/21 03:54:11;;;;;;;8.83;7.20;;;;;;;16.41;72.11;100336.51;153968;1093;103056;-74
2021/08/21 03:57:15;;;;;;;8.53;5.77;;;;;;;16.48;72.44;100345.52;153924;1093;103019;-73
2021/08/21 04:00:19;;;;;;;11.08;5.88;;;;;;;16.54;72.42;100349.30;153960;1101;102942;-73
2021/08/21 04:03:26;;;;;;;8.03;5.70;;;;;;;16.58;72.19;100351.42;154015;1101;103090;-73
2021/08/21 04:06:32;;;;;;;7.53;5.83;;;;;;;16.64;72.31;100349.83;154010;1094;102991;-74
2021/08/21 04:09:36;;;;;;;10.77;6.70;;;;;;;16.70;72.14;100357.14;153961;1101;102990;-73
2021/08/21 04:12:40;;;;;;;8.33;5.63;;;;;;;16.76;72.51;100359.06;153988;1094;102934;-73
2021/08/21 04:15:50;;;;;;;10.88;6.73;;;;;;;16.83;72.47;100365.40;153962;1093;102900;-73
2021/08/21 04:18:54;;;;;;;8.13;6.70;;;;;;;16.86;72.71;100370.42;154073;1101;103089;-74
2021/08/21 04:22:00;;;;;;;10.37;8.33;;;;;;;16.92;72.76;100365.27;153993;1101;103057;-74
2021/08/21 04:25:15;;;;;;;10.80;8.73;;;;;;;16.91;72.93;100366.31;153927;1101;102999;-75
2021/08/21 04:28:19;;;;;;;12.03;9.30;;;;;;;16.87;72.87;100377.46;154003;1093;102930;-74
2021/08/21 04:31:23;;;;;;;12.10;9.03;;;;;;;16.81;73.40;100377.38;154053;1093;103266;-75
2021/08/21 04:34:26;;;;;;;12.67;10.13;;;;;;;16.78;73.40;100373.21;153981;1101;103195;-74
2021/08/21 04:37:31;;;;;;;13.68;10.65;;;;;;;16.77;73.34;100379.61;154121;1101;102991;-75
2021/08/21 04:40:36;;;;;;;12.63;10.30;;;;;;;16.72;73.57;100378.51;154056;1093;102932;-75
2021/08/21 04:43:40;;;;;;;14.33;11.58;;;;;;;16.67;74.04;100390.70;154101;1101;103077;-74
2021/08/21 04:46:46;;;;;;;12.15;9.80;;;;;;;16.67;73.65;100381.78;154134;1093;102932;-74
2021/08/21 04:49:56;;;;;;;14.07;10.50;;;;;;;16.75;73.63;100381.66;153960;1100;103071;-74
2021/08/21 04:53:00;;;;;;;13.70;10.47;;;;;;;16.78;74.09;100386.69;153967;1093;102998;-76
2021/08/21 04:56:05;;;;;;;13.73;10.20;;;;;;;16.76;73.92;100386.02;153993;1093;103038;-74
2021/08/21 04:59:16;;;;;;;14.23;10.03;;;;;;;16.84;74.02;100387.78;154016;1093;103083;-75
2021/08/21 05:02:21;;;;;;;14.58;10.65;;;;;;;17.00;73.70;100392.95;153988;1093;102934;-74
2021/08/21 05:05:25;;;;;;;15.87;10.80;;;;;;;17.10;73.57;100398.02;153941;1100;103011;-73
2021/08/21 05:08:29;;;;;;;14.53;10.90;;;;;;;17.02;73.83;100400.84;154040;1093;103079;-73
2021/08/21 05:11:33;;;;;;;14.58;10.93;;;;;;;16.90;74.16;100403.22;153970;1093;102939;-73
2021/08/21 05:14:37;;;;;;;13.13;10.33;;;;;;;16.95;74.05;100402.63;153933;1100;102923;-73
2021/08/21 05:17:41;;;;;;;15.08;11.30;;;;;;;16.90;74.14;100410.44;153963;1093;102921;-73
2021/08/21 05:21:04;;;;;;;13.23;10.80;;;;;;;16.79;73.94;100404.50;153913;1093;103395;-74
2021/08/21 05:24:08;;;;;;;12.30;9.77;;;;;;;16.95;74.45;100408.02;154046;1093;102993;-74
2021/08/21 05:27:11;;;;;;;13.73;9.63;;;;;;;17.15;73.66;100411.77;154301;1098;103026;-72
2021/08/21 05:30:17;;;;;;;13.18;9.65;;;;;;;17.26;73.75;100413.95;154200;1098;103015;-70
2021/08/21 05:33:21;;;;;;;13.10;10.10;;;;;;;17.38;73.19;100414.27;154559;1098;102929;-70
2021/08/21 05:36:25;;;;;;;12.27;9.50;;;;;;;17.49;73.56;100414.77;154360;1093;102929;-70
2021/08/21 05:39:29;;;;;;;11.65;9.10;;;;;;;17.57;73.25;100428.10;154587;1098;102991;-77
2021/08/21 05:42:34;;;;;;;12.18;9.43;;;;;;;17.71;73.27;100418.28;154706;1098;102952;-78
2021/08/21 05:45:38;;;;;;;12.13;9.37;;;;;;;17.72;73.02;100414.53;154101;1093;102931;-78
2021/08/21 05:48:42;;;;;;;9.23;6.77;;;;;;;17.92;73.85;100429.05;154076;1093;103060;-78
2021/08/21 05:51:46;;;;;;;12.93;9.73;;;;;;;18.30;72.21;100425.11;154194;1100;103081;-74
2021/08/21 05:54:50;;;;;;;12.83;9.70;;;;;;;18.00;72.34;100436.98;154071;1100;103005;-75
2021/08/21 05:58:03;;;;;;;13.53;9.53;;;;;;;17.86;72.55;100427.14;154097;1100;102929;-76
2021/08/21 06:01:06;;;;;;;12.03;9.78;;;;;;;17.86;72.92;100440.64;154014;1093;102927;-75
2021/08/21 06:04:10;;;;;;;11.73;9.47;;;;;;;17.97;72.99;100441.94;154058;1100;103023;-76
2021/08/21 06:07:14;;;;;;;12.13;10.00;;;;;;;17.86;72.64;100446.04;153980;1100;103377;-75
2021/08/21 06:10:18;;;;;;;11.55;9.58;;;;;;;17.81;73.12;100453.84;154089;1093;102965;-77
2021/08/21 06:13:22;;;;;;;12.80;9.13;;;;;;;17.80;73.23;100447.63;154129;1100;102924;-77
2021/08/21 06:16:26;;;;;;;11.23;9.43;;;;;;;17.94;73.15;100450.45;154074;1100;103325;-74
2021/08/21 06:19:29;;;;;;;12.87;9.63;;;;;;;18.16;73.08;100448.52;154056;1101;103000;-75
2021/08/21 06:22:33;;;;;;;11.00;9.17;;;;;;;18.29;72.65;100451.30;153995;1100;103041;-76
2021/08/21 06:25:37;;;;;;;11.55;9.50;;;;;;;18.38;72.88;100450.11;154009;1101;102940;-75
2021/08/21 06:28:40;;;;;;;12.17;9.23;;;;;;;18.61;72.68;100452.51;154001;1093;102921;-76
2021/08/21 06:31:44;;;;;;;12.27;9.27;;;;;;;18.73;72.23;100457.34;154025;1093;102897;-76
2021/08/21 06:34:48;;;;;;;12.33;9.07;;;;;;;18.85;72.54;100460.33;154019;1093;102914;-76
2021/08/21 06:37:52;;;;;;;11.43;8.80;;;;;;;18.96;72.16;100457.04;154017;1100;103003;-79
2021/08/21 06:40:55;;;;;;;11.23;8.77;;;;;;;19.08;72.36;100460.81;154055;1100;102962;-76
2021/08/21 06:43:59;;;;;;;12.63;8.80;;;;;;;19.26;72.01;100464.80;154057;1100;102997;-73
2021/08/21 06:47:19;;;;;;;9.53;7.87;;;;;;;19.35;72.15;100461.70;153987;1093;102958;-73
2021/08/21 06:50:23;;;;;;;9.70;8.17;;;;;;;19.53;71.81;100465.67;154078;1100;102994;-75
2021/08/21 06:53:29;;;;;;;11.47;8.50;;;;;;;19.50;71.58;100464.22;154073;1100;103075;-74
2021/08/21 06:56:33;;;;;;;10.90;8.30;;;;;;;19.57;71.59;100467.77;154438;1093;103013;-74
2021/08/21 06:59:36;;;;;;;11.50;9.40;;;;;;;19.66;71.04;100467.56;154486;1093;103019;-74
2021/08/21 07:02:40;;;;;;;13.63;9.27;;;;;;;19.53;70.84;100473.79;154124;1093;103075;-75
2021/08/21 07:05:44;;;;;;;10.70;9.00;;;;;;;19.46;71.21;100464.82;154566;1098;102994;-78
2021/08/21 07:08:47;;;;;;;11.07;9.07;;;;;;;19.47;70.51;100464.63;154613;1098;103016;-77
2021/08/21 07:11:51;;;;;;;11.30;9.37;;;;;;;19.02;70.05;100475.16;154643;1093;102925;-75
2021/08/21 07:14:55;;;;;;;11.57;9.37;;;;;;;18.98;71.35;100482.01;154621;1098;103002;-75
2021/08/21 07:17:59;;;;;;;11.33;8.40;;;;;;;19.16;71.58;100484.13;154597;1093;103016;-78
2021/08/21 07:21:02;;;;;;;12.03;9.27;;;;;;;19.48;71.17;100474.42;154664;1093;102931;-73
2021/08/21 07:24:06;;;;;;;11.27;8.60;;;;;;;19.55;70.98;100472.56;154590;1098;102992;-77
2021/08/21 07:27:10;;;;;;;11.00;9.23;;;;;;;19.76;70.73;100478.83;154773;1093;103310;-78
2021/08/21 07:30:14;;;;;;;11.10;8.80;;;;;;;19.84;70.90;100484.03;154566;1098;102919;-76
2021/08/21 07:33:18;;;;;;;11.33;9.67;;;;;;;19.75;70.17;100486.13;154541;1098;102990;-75
2021/08/21 07:36:22;;;;;;;11.47;9.63;;;;;;;19.58;70.18;100488.38;154596;1098;103367;-74
2021/08/21 07:39:25;;;;;;;11.53;9.33;;;;;;;19.40;70.50;100490.86;154600;1098;103004;-74
2021/08/21 07:42:29;;;;;;;11.53;9.38;;;;;;;19.46;70.78;100494.59;154685;1098;102995;-76
2021/08/21 07:45:33;;;;;;;11.90;8.87;;;;;;;19.55;70.51;100494.22;154620;1093;102994;-78
2021/08/21 07:48:36;;;;;;;11.20;9.13;;;;;;;19.65;69.80;100496.52;154578;1093;103319;-77
2021/08/21 07:51:40;;;;;;;9.90;8.85;;;;;;;19.65;70.44;100490.25;154589;1093;102998;-76
2021/08/21 07:54:44;;;;;;;11.45;8.40;;;;;;;19.96;70.38;100504.05;154585;1093;102990;-76
2021/08/21 07:57:48;;;;;;;11.03;9.00;;;;;;;20.28;69.96;100501.50;154689;1093;103039;-77
2021/08/21 08:00:51;;;;;;;10.83;7.83;;;;;;;20.36;67.61;100501.30;154842;1093;102927;-77
2021/08/21 08:03:55;;;;;;;9.63;7.90;;;;;;;20.13;68.62;100501.75;154655;1093;102993;-75
2021/08/21 08:06:59;;;;;;;10.10;7.65;;;;;;;20.04;69.43;100502.18;154722;1098;102948;-77
2021/08/21 08:10:03;;;;;;;7.10;5.93;;;;;;;20.08;69.82;100506.95;154660;1093;103085;-74
2021/08/21 08:13:07;;;;;;;8.57;7.03;;;;;;;20.44;69.93;100505.66;154686;1098;102905;-74
2021/08/21 08:16:11;;;;;;;8.55;7.18;;;;;;;20.74;68.77;100511.42;154681;1093;102925;-75
2021/08/21 08:19:15;;;;;;;7.33;6.53;;;;;;;20.78;69.16;100515.41;154648;1098;102926;-76
2021/08/21 08:22:19;;;;;;;8.35;6.90;;;;;;;20.74;68.06;100511.42;154650;1093;102923;-76
2021/08/21 08:25:23;;;;;;;7.07;6.00;;;;;;;20.52;68.14;100513.56;154631;1093;103064;-76
2021/08/21 08:28:27;;;;;;;7.27;6.23;;;;;;;20.68;68.31;100509.58;154651;1098;102893;-77
2021/08/21 08:31:31;;;;;;;6.67;5.83;;;;;;;20.83;68.07;100513.92;154637;1094;102930;-74
2021/08/21 08:34:34;;;;;;;6.57;5.97;;;;;;;20.80;68.39;100515.16;154594;1093;103484;-74
2021/08/21 08:37:40;;;;;;;6.13;5.53;;;;;;;20.85;66.80;100504.52;154640;1098;102932;-74
2021/08/21 08:40:43;;;;;;;6.00;5.40;;;;;;;20.84;68.17;100512.86;154691;1094;103068;-74
2021/08/21 08:43:47;;;;;;;5.97;5.37;;;;;;;20.95;67.82;100515.73;154636;1098;102901;-72
2021/08/21 08:46:51;;;;;;;6.40;5.38;;;;;;;21.09;67.20;100515.67;154604;1093;102926;-73
2021/08/21 08:50:03;;;;;;;7.47;5.23;;;;;;;21.11;67.25;100514.43;154577;1093;102871;-73
2021/08/21 08:53:07;;;;;;;5.77;5.17;;;;;;;21.17;66.87;100513.56;154618;1093;102979;-77
2021/08/21 08:56:11;;;;;;;5.70;5.10;;;;;;;21.46;66.98;100522.20;154632;1098;102998;-72
2021/08/21 08:59:15;;;;;;;6.00;5.40;;;;;;;21.78;66.58;100519.45;154786;1098;102905;-76
2021/08/21 09:02:34;;;;;;;6.50;5.40;;;;;;;21.94;66.27;100518.92;154640;1098;102931;-76
2021/08/21 09:05:40;;;;;;;5.70;5.10;;;;;;;22.07;66.25;100522.57;154698;1093;103047;-75
2021/08/21 09:08:44;;;;;;;5.70;4.93;;;;;;;22.30;65.67;100520.08;154673;1098;102897;-77
2021/08/21 09:11:52;;;;;;;6.73;5.20;;;;;;;21.99;61.59;100531.02;154670;1098;103008;-76
2021/08/21 09:14:55;;;;;;;5.10;4.40;;;;;;;21.55;64.39;100531.72;154682;1098;102931;-77
2021/08/21 09:18:07;;;;;;;5.43;4.83;;;;;;;21.67;65.39;100529.16;154606;1098;103265;-77
2021/08/21 09:21:11;;;;;;;5.93;4.70;;;;;;;21.88;65.38;100527.97;154617;1093;102929;-76
2021/08/21 09:24:33;;;;;;;5.33;4.65;;;;;;;22.06;64.89;100538.05;154663;1093;103022;-75
2021/08/21 09:27:39;;;;;;;5.47;4.77;;;;;;;22.14;64.57;100532.33;154659;1098;103285;-77
2021/08/21 09:30:43;;;;;;;6.25;4.80;;;;;;;22.29;64.61;100523.05;154641;1098;102932;-77
2021/08/21 09:33:53;;;;;;;4.93;4.50;;;;;;;22.38;63.55;100529.01;154685;1098;102995;-79
2021/08/21 09:36:57;;;;;;;5.07;4.57;;;;;;;22.05;63.20;100530.11;154668;1093;102988;-76
2021/08/21 09:40:05;;;;;;;5.67;5.00;;;;;;;21.74;63.08;100526.39;154659;1098;102929;-80
2021/08/21 09:43:20;;;;;;;8.03;6.00;;;;;;;21.61;62.33;100524.59;154677;1098;102995;-79
2021/08/21 09:46:27;;;;;;;5.40;4.90;;;;;;;21.54;62.64;100535.50;154705;1098;103348;-82
2021/08/21 09:49:31;;;;;;;6.37;5.60;;;;;;;21.54;62.49;100535.50;154658;1098;102937;-77
2021/08/21 09:52:34;;;;;;;7.13;5.37;;;;;;;21.59;62.88;100532.13;154586;1093;102993;-75
2021/08/21 09:55:38;;;;;;;5.43;4.93;;;;;;;21.51;61.65;100535.93;154531;1098;102927;-74
2021/08/21 09:58:42;;;;;;;5.37;4.87;;;;;;;21.46;62.89;100532.20;154594;1098;102994;-74
2021/08/21 10:01:47;;;;;;;5.50;4.73;;;;;;;21.54;62.95;100534.69;154678;1098;102958;-74
2021/08/21 10:04:51;;;;;;;4.40;4.00;;;;;;;21.61;62.55;100537.34;154657;1098;102950;-74
2021/08/21 10:07:58;;;;;;;7.05;5.48;;;;;;;21.63;62.11;100543.38;154584;1098;103358;-74
2021/08/21 10:11:02;;;;;;;5.10;4.25;;;;;;;21.67;62.55;100536.45;154620;1098;103039;-73
2021/08/21 10:14:08;;;;;;;5.70;5.00;;;;;;;21.63;61.91;100538.77;154534;1098;103030;-74
2021/08/21 10:17:14;;;;;;;5.60;4.20;;;;;;;21.74;62.66;100537.25;154678;1098;102953;-74
2021/08/21 10:20:18;;;;;;;4.55;4.10;;;;;;;22.03;61.33;100532.22;154530;1098;102999;-75
2021/08/21 10:23:26;;;;;;;4.70;4.17;;;;;;;22.09;62.26;100536.77;154571;1093;103400;-74
2021/08/21 10:26:34;;;;;;;5.10;3.80;;;;;;;22.29;61.79;100537.46;154617;1093;103077;-74
2021/08/21 10:29:38;;;;;;;3.90;3.23;;;;;;;22.55;61.79;100525.47;154614;1098;103006;-74
2021/08/21 10:32:43;;;;;;;4.10;3.30;;;;;;;22.54;60.75;100536.59;154577;1098;103265;-75
2021/08/21 10:35:49;;;;;;;4.47;3.60;;;;;;;22.43;60.10;100535.44;154607;1098;102931;-75
2021/08/21 10:39:17;;;;;;;3.87;3.33;;;;;;;22.44;60.19;100528.95;154632;1093;102940;-75
2021/08/21 10:42:30;;;;;;;5.90;4.57;;;;;;;22.48;59.70;100527.45;154604;1098;103033;-74
2021/08/21 10:45:48;;;;;;;5.30;4.13;;;;;;;22.38;59.74;100529.01;154559;1098;103099;-74
2021/08/21 10:48:56;;;;;;;4.83;4.33;;;;;;;22.38;60.22;100539.88;154670;1098;102941;-75
2021/08/21 10:52:00;;;;;;;6.00;4.37;;;;;;;22.40;60.15;100526.89;154605;1098;102941;-74
2021/08/21 10:55:14;;;;;;;4.78;4.28;;;;;;;22.49;60.03;100529.09;154559;1098;102958;-74
2021/08/21 10:58:19;;;;;;;4.47;3.80;;;;;;;22.52;60.54;100519.67;154627;1093;102994;-74
2021/08/21 11:01:23;;;;;;;3.68;3.38;;;;;;;22.55;60.14;100522.75;154666;1098;103075;-76
2021/08/21 11:04:35;;;;;;;4.60;3.20;;;;;;;22.59;60.27;100519.59;154673;1098;102984;-74
2021/08/21 11:07:43;;;;;;;3.87;3.47;;;;;;;22.39;58.84;100523.35;154581;1098;102939;-75
2021/08/21 11:10:47;;;;;;;4.73;3.90;;;;;;;22.37;58.29;100522.75;154657;1098;102910;-75
2021/08/21 11:13:57;;;;;;;4.20;3.60;;;;;;;22.59;59.60;100519.59;154609;1093;103470;-80
2021/08/21 11:17:01;;;;;;;4.60;4.00;;;;;;;22.77;59.42;100516.03;154621;1093;103105;-76
2021/08/21 11:20:27;;;;;;;6.05;4.48;;;;;;;22.91;59.22;100518.37;154690;1098;102988;-74
2021/08/21 11:23:30;;;;;;;5.85;4.20;;;;;;;22.92;59.79;100519.19;154628;1098;102901;-73
2021/08/21 11:26:34;;;;;;;5.23;4.27;;;;;;;22.76;58.79;100514.38;154562;1093;102937;-74
2021/08/21 11:30:09;;;;;;;3.63;2.80;;;;;;;22.73;59.05;100516.50;154625;1098;102925;-74
2021/08/21 11:33:15;;;;;;;4.23;3.07;;;;;;;22.86;59.27;100509.23;154693;1098;103361;-76
2021/08/21 11:36:23;;;;;;;3.30;3.00;;;;;;;22.92;58.82;100519.19;154250;1098;103307;-77
2021/08/21 11:39:27;;;;;;;3.85;3.45;;;;;;;23.12;59.33;100514.37;154621;1098;102990;-76
2021/08/21 11:42:46;;;;;;;3.63;3.05;;;;;;;23.20;58.57;100507.77;154616;1093;102998;-75
2021/08/21 11:45:50;;;;;;;2.90;2.60;;;;;;;23.24;57.52;100508.97;154683;1098;102939;-74
2021/08/21 11:49:05;;;;;;;3.20;2.90;;;;;;;23.36;58.28;100514.45;154510;1098;103159;-75
2021/08/21 11:52:10;;;;;;;3.30;2.85;;;;;;;23.53;57.88;100507.28;154556;1098;102989;-76
2021/08/21 11:55:14;;;;;;;4.37;3.87;;;;;;;23.47;57.09;100513.67;154680;1093;102934;-74
2021/08/21 11:58:26;;;;;;;3.37;3.07;;;;;;;23.12;55.67;100514.37;154602;1098;103266;-77
2021/08/21 12:01:34;;;;;;;3.80;3.13;;;;;;;22.78;57.39;100523.14;154659;1093;102997;-75
2021/08/21 12:04:54;;;;;;;3.70;3.20;;;;;;;22.72;57.17;100520.27;154537;1098;103073;-73
2021/08/21 12:07:58;;;;;;;4.53;3.50;;;;;;;22.94;56.44;100509.77;154710;1098;102900;-74
2021/08/21 12:11:03;;;;;;;3.98;3.20;;;;;;;23.18;57.78;100506.35;154566;1098;102990;-73
2021/08/21 12:14:09;;;;;;;7.20;3.43;;;;;;;23.41;56.50;100506.43;154650;1093;102998;-74
2021/08/21 12:17:13;;;;;;;3.25;2.95;;;;;;;23.70;56.49;100502.00;154469;1093;102912;-72
2021/08/21 12:20:17;;;;;;;3.50;2.87;;;;;;;24.10;56.99;100495.92;154085;1101;103078;-75
2021/08/21 12:23:21;;;;;;;3.77;3.10;;;;;;;24.48;55.28;100501.93;154011;1101;103048;-74
2021/08/21 12:26:33;;;;;;;3.70;3.30;;;;;;;24.12;53.32;100498.41;154048;1093;102995;-75
2021/08/21 12:29:36;;;;;;;3.65;2.93;;;;;;;23.53;53.77;100501.84;154049;1093;102980;-75
2021/08/21 12:32:41;;;;;;;3.40;3.10;;;;;;;23.33;54.44;100495.88;154028;1093;102990;-76
2021/08/21 12:35:45;;;;;;;3.03;2.50;;;;;;;23.31;55.18;100492.55;154082;1093;102965;-76
2021/08/21 12:39:03;;;;;;;3.13;2.63;;;;;;;23.46;55.32;100492.96;154025;1101;102937;-78
2021/08/21 12:42:07;;;;;;;3.17;2.30;;;;;;;23.47;54.75;100489.16;154015;1093;102942;-75
2021/08/21 12:45:25;;;;;;;2.85;2.30;;;;;;;23.69;52.19;100489.45;153902;1101;102921;-78
2021/08/21 12:48:29;;;;;;;2.40;2.10;;;;;;;23.65;52.28;100491.00;153987;1093;102911;-78
2021/08/21 12:51:37;;;;;;;2.88;2.58;;;;;;;23.64;52.20;100493.95;153936;1101;103019;-77
2021/08/21 12:54:44;;;;;;;4.07;2.23;;;;;;;23.62;52.79;100487.91;154039;1093;102997;-80
2021/08/21 12:57:47;;;;;;;2.40;2.00;;;;;;;23.57;49.22;100480.41;154054;1093;103010;-78
2021/08/21 13:01:04;;;;;;;3.20;2.20;;;;;;;23.41;51.56;100489.27;154079;1101;103477;-77
2021/08/21 13:04:09;;;;;;;2.68;2.48;;;;;;;23.22;47.77;100491.22;154035;1093;102999;-78
2021/08/21 13:07:14;;;;;;;3.30;2.05;;;;;;;23.02;50.42;100488.71;154046;1093;103077;-77
2021/08/21 13:10:21;;;;;;;2.33;2.13;;;;;;;22.74;50.78;100484.68;154031;1093;102997;-76
2021/08/21 13:13:24;;;;;;;3.00;2.20;;;;;;;22.48;50.01;100481.22;154024;1093;102991;-76
2021/08/21 13:16:28;;;;;;;2.97;2.60;;;;;;;22.37;51.06;100490.13;153977;1093;102933;-77
2021/08/21 13:19:32;;;;;;;3.73;2.10;;;;;;;22.49;50.92;100484.77;154726;1093;103044;-80
2021/08/21 13:22:36;;;;;;;2.93;2.43;;;;;;;22.51;50.80;100478.03;154816;1098;103100;-81
2021/08/21 13:25:42;;;;;;;2.35;2.08;;;;;;;22.57;51.62;100480.91;154292;1098;102952;-77
2021/08/21 13:28:48;;;;;;;2.30;2.10;;;;;;;22.77;51.71;100473.36;154716;1098;102930;-85
2021/08/21 13:31:52;;;;;;;3.60;2.07;;;;;;;22.93;51.31;100482.77;154633;1098;103384;-77
2021/08/21 13:34:55;;;;;;;2.70;2.20;;;;;;;22.87;48.88;100480.97;154704;1094;102982;-76
2021/08/21 13:38:00;;;;;;;2.20;1.85;;;;;;;22.79;49.30;100478.55;154792;1093;103009;-82
2021/08/21 13:41:03;;;;;;;3.15;2.40;;;;;;;22.70;47.47;100472.59;154831;1098;102942;-76
2021/08/21 13:44:07;;;;;;;3.40;2.20;;;;;;;22.73;49.09;100480.31;154661;1098;103038;-77
2021/08/21 13:47:11;;;;;;;3.27;2.10;;;;;;;22.74;47.70;100480.06;154672;1093;102919;-76
2021/08/21 13:50:15;;;;;;;3.55;1.90;;;;;;;22.97;50.18;100477.70;154682;1098;102934;-76
2021/08/21 13:53:19;;;;;;;2.03;1.83;;;;;;;23.25;49.81;100468.95;154498;1098;102977;-80
2021/08/21 13:56:23;;;;;;;2.53;1.80;;;;;;;23.45;50.21;100474.13;154433;1093;102993;-79
2021/08/21 13:59:26;;;;;;;1.83;1.70;;;;;;;23.47;48.21;100472.81;154387;1098;102997;-79
2021/08/21 14:02:30;;;;;;;2.20;1.90;;;;;;;23.43;47.30;100477.07;154472;1093;103403;-81